createdAt,value
2022-10-23T00:01:41.493Z,73.30
2022-10-23T00:04:13.274Z,72.82
2022-10-23T00:06:40.684Z,74.10
2022-10-23T00:09:08.999Z,73.92
2022-10-23T00:11:36.775Z,74.64
2022-10-23T00:14:08.098Z,74.17
2022-10-23T00:16:38.141Z,73.94
2022-10-23T00:19:06.939Z,73.79
2022-10-23T00:21:57.422Z,74.15
2022-10-23T00:24:25.397Z,74.08
2022-10-23T00:26:54.480Z,74.35
2022-10-23T00:29:21.298Z,74.29
2022-10-23T00:31:59.752Z,73.25
2022-10-23T00:34:27.521Z,73.83
2022-10-23T00:36:54.178Z,74.08
2022-10-23T00:39:21.126Z,74.18
2022-10-23T00:41:47.816Z,73.54
2022-10-23T00:44:17.635Z,73.95
2022-10-23T00:46:46.104Z,72.90
2022-10-23T00:49:16.444Z,72.24
2022-10-23T00:51:53.932Z,71.72
2022-10-23T00:54:24.802Z,72.06
2022-10-23T00:56:56.049Z,72.02
2022-10-23T00:59:23.256Z,72.01
2022-10-23T01:01:50.235Z,72.86
2022-10-23T01:04:17.253Z,73.19
2022-10-23T01:07:08.616Z,73.70
2022-10-23T01:09:45.781Z,72.93
2022-10-23T01:12:31.995Z,72.62
2022-10-23T01:15:47.739Z,74.08
2022-10-23T01:18:20.702Z,73.68
2022-10-23T01:20:55.594Z,72.91
2022-10-23T01:23:40.904Z,73.21
2022-10-23T01:26:43.813Z,74.45
2022-10-23T01:29:19.852Z,74.13
2022-10-23T01:32:03.798Z,73.82
2022-10-23T01:34:56.524Z,73.42
2022-10-23T01:37:56.084Z,74.56
2022-10-23T01:40:32.279Z,75.59
2022-10-23T01:43:06.474Z,74.73
2022-10-23T01:45:50.562Z,75.30
2022-10-23T01:48:24.936Z,76.06
2022-10-23T01:50:56.373Z,76.51
2022-10-23T01:53:26.253Z,76.25
2022-10-23T01:55:57.168Z,76.14
2022-10-23T01:58:29.798Z,75.93
2022-10-23T02:01:07.820Z,76.52
2022-10-23T02:03:37.732Z,75.77
2022-10-23T02:06:09.345Z,76.55
2022-10-23T02:08:36.212Z,77.03
2022-10-23T02:11:13.220Z,76.87
2022-10-23T02:13:48.103Z,76.82
2022-10-23T02:16:23.219Z,77.21
2022-10-23T02:19:34.583Z,77.44
2022-10-23T02:22:07.210Z,77.95
2022-10-23T02:24:47.540Z,78.09
2022-10-23T02:27:30.041Z,76.75
2022-10-23T02:30:04.759Z,77.56
2022-10-23T02:32:31.546Z,77.84
2022-10-23T02:34:58.695Z,78.16
2022-10-23T02:37:25.691Z,78.66
2022-10-23T02:39:58.340Z,77.77
2022-10-23T02:42:44.434Z,78.18
2022-10-23T02:46:05.318Z,78.05
2022-10-23T02:48:55.459Z,78.21
2022-10-23T02:51:52.493Z,78.99
2022-10-23T02:54:47.432Z,78.12
2022-10-23T02:57:28.184Z,78.49
2022-10-23T03:00:07.389Z,79.50
2022-10-23T03:02:45.979Z,79.50
2022-10-23T03:05:26.891Z,79.19
2022-10-23T03:07:54.050Z,79.52
2022-10-23T03:10:23.188Z,79.21
2022-10-23T03:12:50.658Z,79.32
2022-10-23T03:15:23.744Z,79.72
2022-10-23T03:18:03.842Z,78.99
2022-10-23T03:20:36.587Z,78.75
2022-10-23T03:23:03.743Z,79.52
2022-10-23T03:25:36.403Z,79.84
2022-10-23T03:28:06.471Z,79.56
2022-10-23T03:30:33.879Z,80.01
2022-10-23T03:33:02.385Z,79.33
2022-10-23T03:35:29.114Z,80.51
2022-10-23T03:38:04.081Z,80.50
2022-10-23T03:40:31.127Z,80.00
2022-10-23T03:42:58.743Z,79.24
2022-10-23T03:45:29.757Z,79.41
2022-10-23T03:47:58.285Z,79.90
2022-10-23T03:50:28.134Z,79.56
2022-10-23T03:52:56.567Z,80.34
2022-10-23T03:55:23.645Z,80.77
2022-10-23T03:57:50.435Z,80.41
2022-10-23T04:00:37.455Z,80.61
2022-10-23T04:03:07.590Z,79.38
2022-10-23T04:05:36.190Z,79.74
2022-10-23T04:08:16.328Z,79.14
2022-10-23T04:10:53.054Z,79.78
2022-10-23T04:13:23.651Z,79.95
2022-10-23T04:15:57.886Z,78.80
2022-10-23T04:18:24.571Z,77.75
2022-10-23T04:20:51.551Z,78.38
2022-10-23T04:23:19.764Z,77.56
2022-10-23T04:25:49.578Z,78.44
2022-10-23T04:28:17.540Z,79.63
2022-10-23T04:30:46.633Z,79.84
2022-10-23T04:33:13.260Z,79.75
2022-10-23T04:35:41.349Z,79.37
2022-10-23T04:38:08.003Z,79.45
2022-10-23T04:40:34.813Z,79.38
2022-10-23T04:43:01.660Z,79.92
2022-10-23T04:45:28.391Z,79.34
2022-10-23T04:47:56.228Z,79.30
2022-10-23T04:50:23.322Z,80.07
2022-10-23T04:52:54.332Z,79.72
2022-10-23T04:55:21.179Z,78.78
2022-10-23T04:57:51.100Z,79.76
2022-10-23T05:00:18.624Z,80.48
2022-10-23T05:02:45.835Z,80.74
2022-10-23T05:05:12.686Z,80.18
2022-10-23T05:07:40.806Z,80.54
2022-10-23T05:10:08.152Z,80.42
2022-10-23T05:12:34.805Z,80.44
2022-10-23T05:15:45.299Z,81.04
2022-10-23T05:18:18.073Z,80.22
2022-10-23T05:20:47.636Z,81.13
2022-10-23T05:23:19.560Z,80.84
2022-10-23T05:25:48.254Z,80.49
2022-10-23T05:28:20.753Z,81.25
2022-10-23T05:30:49.663Z,79.72
2022-10-23T05:33:57.077Z,80.10
2022-10-23T05:36:27.640Z,80.27
2022-10-23T05:38:54.652Z,79.16
2022-10-23T05:41:21.398Z,79.17
2022-10-23T05:43:48.307Z,79.03
2022-10-23T05:46:15.159Z,78.82
2022-10-23T05:48:42.029Z,79.19
2022-10-23T05:51:11.883Z,79.32
2022-10-23T05:53:41.724Z,78.07
2022-10-23T05:56:09.688Z,79.14
2022-10-23T05:58:36.713Z,79.47
2022-10-23T06:01:09.109Z,79.47
2022-10-23T06:03:36.969Z,76.93
2022-10-23T06:06:04.260Z,77.85
2022-10-23T06:08:32.431Z,76.91
2022-10-23T06:11:02.037Z,77.22
2022-10-23T06:13:28.681Z,77.20
2022-10-23T06:15:55.356Z,78.29
2022-10-23T06:18:22.276Z,77.91
2022-10-23T06:20:49.380Z,77.67
2022-10-23T06:23:16.078Z,75.99
2022-10-23T06:25:42.859Z,76.02
2022-10-23T06:28:20.550Z,77.72
2022-10-23T06:30:47.652Z,78.63
2022-10-23T06:33:14.318Z,78.70
2022-10-23T06:35:41.059Z,79.51
2022-10-23T06:38:09.220Z,80.37
2022-10-23T06:40:36.370Z,79.07
2022-10-23T06:43:06.143Z,77.31
2022-10-23T06:45:34.088Z,78.84
2022-10-23T06:48:01.252Z,79.80
2022-10-23T06:50:31.140Z,79.16
2022-10-23T06:52:58.044Z,79.28
2022-10-23T06:55:24.892Z,77.14
2022-10-23T06:57:51.691Z,76.72
2022-10-23T07:00:18.386Z,77.02
2022-10-23T07:02:50.948Z,78.90
2022-10-23T07:05:19.571Z,78.62
2022-10-23T07:07:46.692Z,78.61
2022-10-23T07:12:40.286Z,78.80
2022-10-23T07:15:07.881Z,79.47
2022-10-23T07:17:34.523Z,78.50
2022-10-23T07:20:04.637Z,77.57
2022-10-23T07:22:36.502Z,78.31
2022-10-23T07:25:06.589Z,80.95
2022-10-23T07:27:44.631Z,81.41
2022-10-23T07:30:13.463Z,78.55
2022-10-23T07:32:40.994Z,76.44
2022-10-23T07:37:51.461Z,77.23
2022-10-23T07:40:29.751Z,77.98
2022-10-23T07:43:08.660Z,77.58
2022-10-23T07:45:38.449Z,76.60
2022-10-23T07:48:09.127Z,77.27
2022-10-23T07:50:38.224Z,77.58
2022-10-23T07:53:05.117Z,75.56
2022-10-23T07:55:32.139Z,76.66
2022-10-23T07:58:01.907Z,77.20
2022-10-23T08:00:33.484Z,77.52
2022-10-23T08:03:03.968Z,78.20
2022-10-23T08:05:30.841Z,78.55
2022-10-23T08:07:59.718Z,76.99
2022-10-23T08:10:31.860Z,76.32
2022-10-23T08:13:08.977Z,76.91
2022-10-23T08:15:35.855Z,74.80
2022-10-23T08:18:05.815Z,72.51
2022-10-23T08:20:34.390Z,72.63
2022-10-23T08:23:01.200Z,73.98
2022-10-23T08:25:27.905Z,74.94
2022-10-23T08:27:54.744Z,74.84
2022-10-23T08:30:21.458Z,74.76
2022-10-23T08:32:48.152Z,73.54
2022-10-23T08:35:24.544Z,73.66
2022-10-23T08:37:54.421Z,73.96
2022-10-23T08:40:25.368Z,73.56
2022-10-23T08:43:01.686Z,73.67
2022-10-23T08:46:00.263Z,71.76
2022-10-23T08:48:56.354Z,71.32
2022-10-23T08:51:34.621Z,70.38
2022-10-23T08:54:22.520Z,69.53
2022-10-23T08:57:01.520Z,70.68
2022-10-23T08:59:35.289Z,69.93
2022-10-23T09:02:30.650Z,69.69
2022-10-23T09:04:58.799Z,70.91
2022-10-23T09:07:34.819Z,71.10
2022-10-23T09:10:28.183Z,70.31
2022-10-23T09:13:04.482Z,70.15
2022-10-23T09:16:01.808Z,69.39
2022-10-23T09:18:31.788Z,70.07
2022-10-23T09:21:00.868Z,70.14
2022-10-23T09:23:27.728Z,68.69
2022-10-23T09:25:59.876Z,69.06
2022-10-23T09:28:33.297Z,67.39
2022-10-23T09:31:20.291Z,66.00
2022-10-23T09:34:10.970Z,68.03
2022-10-23T09:36:50.584Z,67.34
2022-10-23T09:39:32.823Z,67.42
2022-10-23T09:42:14.470Z,64.76
2022-10-23T09:44:52.948Z,65.11
2022-10-23T09:47:27.549Z,64.02
2022-10-23T09:49:57.210Z,63.81
2022-10-23T09:52:36.210Z,65.70
2022-10-23T09:55:24.987Z,63.66
2022-10-23T09:57:55.693Z,63.14
2022-10-23T10:00:25.363Z,63.23
2022-10-23T10:03:06.774Z,65.18
2022-10-23T10:05:38.858Z,65.73
2022-10-23T10:08:21.069Z,62.69
2022-10-23T10:11:02.537Z,63.18
2022-10-23T10:13:45.391Z,64.86
2022-10-23T10:16:45.587Z,62.41
2022-10-23T10:19:50.321Z,65.15
2022-10-23T10:22:32.036Z,65.02
2022-10-23T10:25:07.346Z,63.49
2022-10-23T10:28:00.912Z,63.70
2022-10-23T10:30:40.616Z,61.62
2022-10-23T10:33:46.574Z,64.38
2022-10-23T10:36:41.454Z,63.34
2022-10-23T10:39:42.263Z,62.67
2022-10-23T10:42:31.126Z,62.58
2022-10-23T10:45:07.199Z,62.09
2022-10-23T10:47:43.425Z,63.57
2022-10-23T10:50:25.913Z,63.38
2022-10-23T10:53:12.093Z,64.55
2022-10-23T10:58:40.451Z,63.60
2022-10-23T11:01:29.202Z,63.95
2022-10-23T11:04:19.490Z,64.59
2022-10-23T11:06:51.923Z,64.08
2022-10-23T11:09:45.634Z,62.90
2022-10-23T11:12:24.781Z,63.25
2022-10-23T11:14:52.105Z,63.09
2022-10-23T11:17:43.351Z,65.08
2022-10-23T11:20:40.933Z,63.84
2022-10-23T11:23:48.731Z,64.55
2022-10-23T11:26:31.045Z,66.08
2022-10-23T11:29:29.358Z,65.31
2022-10-23T11:32:09.479Z,66.44
2022-10-23T11:34:46.259Z,63.87
2022-10-23T11:37:18.616Z,65.24
2022-10-23T11:40:14.611Z,63.89
2022-10-23T11:42:53.165Z,65.17
2022-10-23T11:45:40.779Z,64.43
2022-10-23T11:48:30.205Z,66.48
2022-10-23T11:51:00.326Z,64.79
2022-10-23T11:53:35.698Z,66.96
2022-10-23T11:56:26.981Z,65.64
2022-10-23T11:58:58.146Z,65.97
2022-10-23T12:01:45.679Z,65.15
2022-10-23T12:04:14.479Z,64.71
2022-10-23T12:06:56.421Z,65.70
2022-10-23T12:09:46.471Z,66.42
2022-10-23T12:14:51.322Z,64.79
2022-10-23T12:17:37.301Z,66.68
2022-10-23T12:20:13.918Z,64.68
2022-10-23T12:22:53.509Z,66.71
2022-10-23T12:25:29.158Z,66.65
2022-10-23T12:28:09.551Z,65.62
2022-10-23T12:30:51.789Z,65.78
2022-10-23T12:33:37.759Z,66.83
2022-10-23T12:36:09.999Z,65.94
2022-10-23T12:38:44.516Z,66.06
2022-10-23T12:41:43.255Z,64.99
2022-10-23T12:44:16.404Z,65.36
2022-10-23T12:46:47.584Z,64.07
2022-10-23T12:49:25.137Z,64.69
2022-10-23T12:52:07.792Z,63.74
2022-10-23T12:54:42.953Z,64.87
2022-10-23T12:57:32.889Z,64.92
2022-10-23T13:00:11.090Z,64.03
2022-10-23T13:02:39.736Z,65.61
2022-10-23T13:05:33.247Z,64.90
2022-10-23T13:08:02.496Z,65.07
2022-10-23T13:10:33.926Z,65.28
2022-10-23T13:13:05.528Z,64.77
2022-10-23T13:15:41.153Z,67.65
2022-10-23T13:18:09.569Z,65.77
2022-10-23T13:20:39.159Z,65.24
2022-10-23T13:23:26.056Z,63.76
2022-10-23T13:25:57.090Z,66.63
2022-10-23T13:29:00.565Z,66.46
2022-10-23T13:31:34.444Z,65.24
2022-10-23T13:34:06.255Z,64.55
2022-10-23T13:36:40.564Z,64.31
2022-10-23T13:41:45.839Z,66.18
2022-10-23T13:44:23.735Z,65.52
2022-10-23T13:46:54.410Z,66.03
2022-10-23T13:49:21.252Z,66.38
2022-10-23T13:51:53.742Z,65.49
2022-10-23T13:56:57.959Z,65.93
2022-10-23T13:59:28.064Z,66.01
2022-10-23T14:01:57.838Z,65.83
2022-10-23T14:04:24.616Z,66.16
2022-10-23T14:06:55.063Z,64.99
2022-10-23T14:09:21.744Z,65.74
2022-10-23T14:11:54.081Z,65.97
2022-10-23T14:14:26.365Z,64.70
2022-10-23T14:16:54.955Z,63.62
2022-10-23T14:19:21.845Z,65.52
2022-10-23T14:21:55.899Z,65.52
2022-10-23T14:24:28.409Z,64.24
2022-10-23T14:27:02.606Z,64.33
2022-10-23T14:29:29.491Z,63.93
2022-10-23T14:31:56.321Z,64.93
2022-10-23T14:34:27.093Z,66.78
2022-10-23T14:37:04.050Z,65.46
2022-10-23T14:39:34.590Z,65.84
2022-10-23T14:42:30.533Z,66.14
2022-10-23T14:45:06.677Z,65.90
2022-10-23T14:47:33.463Z,64.39
2022-10-23T14:50:00.363Z,64.46
2022-10-23T14:52:27.463Z,65.00
2022-10-23T14:54:54.373Z,64.98
2022-10-23T14:57:24.220Z,65.90
2022-10-23T14:59:52.758Z,65.91
2022-10-23T15:02:20.873Z,65.46
2022-10-23T15:04:48.514Z,66.64
2022-10-23T15:07:16.346Z,66.74
2022-10-23T15:09:43.094Z,66.98
2022-10-23T15:12:09.820Z,65.92
2022-10-23T15:14:36.549Z,65.57
2022-10-23T15:17:06.208Z,67.82
2022-10-23T15:19:36.086Z,67.71
2022-10-23T15:22:03.028Z,68.25
2022-10-23T15:24:30.489Z,68.33
2022-10-23T15:26:57.372Z,67.37
2022-10-23T15:31:57.761Z,67.46
2022-10-23T15:34:27.733Z,65.85
2022-10-23T15:37:01.188Z,66.76
2022-10-23T15:39:38.144Z,67.99
2022-10-23T15:42:06.694Z,68.84
2022-10-23T15:44:35.795Z,68.92
2022-10-23T15:47:02.901Z,69.72
2022-10-23T15:49:33.398Z,69.77
2022-10-23T15:52:04.995Z,69.77
2022-10-23T15:54:32.983Z,69.73
2022-10-23T15:57:05.485Z,69.26
2022-10-23T15:59:32.848Z,69.09
2022-10-23T16:02:02.980Z,70.61
2022-10-23T16:04:30.924Z,69.17
2022-10-23T16:07:00.770Z,70.63
2022-10-23T16:09:30.219Z,69.54
2022-10-23T16:11:57.172Z,70.36
2022-10-23T16:14:30.234Z,70.93
2022-10-23T16:17:00.225Z,70.20
2022-10-23T16:19:27.717Z,70.72
2022-10-23T16:21:54.761Z,70.84
2022-10-23T16:24:27.828Z,70.89
2022-10-23T16:27:02.957Z,71.02
2022-10-23T16:29:31.542Z,71.54
2022-10-23T16:32:03.503Z,71.13
2022-10-23T16:34:34.039Z,72.47
2022-10-23T16:37:02.432Z,72.94
2022-10-23T16:39:32.090Z,73.56
2022-10-23T16:42:01.765Z,74.03
2022-10-23T16:44:29.448Z,73.77
2022-10-23T16:47:02.325Z,73.39
2022-10-23T16:49:31.052Z,73.42
2022-10-23T16:51:58.461Z,74.01
2022-10-23T16:54:25.305Z,74.09
2022-10-23T16:56:52.224Z,73.89
2022-10-23T16:59:19.025Z,73.83
2022-10-23T17:01:53.093Z,73.27
2022-10-23T17:04:20.476Z,73.92
2022-10-23T17:06:47.249Z,74.97
2022-10-23T17:09:14.110Z,75.44
2022-10-23T17:11:44.174Z,75.75
2022-10-23T17:14:19.933Z,75.23
2022-10-23T17:16:51.676Z,75.45
2022-10-23T17:22:12.061Z,75.94
2022-10-23T17:24:41.198Z,76.09
2022-10-23T17:27:08.558Z,76.04
2022-10-23T17:29:44.721Z,76.04
2022-10-23T17:32:14.632Z,75.88
2022-10-23T17:34:46.259Z,76.32
2022-10-23T17:37:16.234Z,76.92
2022-10-23T17:39:43.258Z,77.04
2022-10-23T17:42:10.120Z,76.57
2022-10-23T17:44:37.002Z,76.25
2022-10-23T17:47:06.708Z,76.73
2022-10-23T17:49:33.567Z,76.27
2022-10-23T17:52:09.204Z,76.49
2022-10-23T17:54:36.148Z,75.31
2022-10-23T17:57:08.745Z,76.62
2022-10-23T17:59:35.542Z,77.17
2022-10-23T18:02:02.633Z,77.43
2022-10-23T18:04:31.139Z,77.46
2022-10-23T18:06:57.784Z,76.65
2022-10-23T18:09:24.506Z,77.44
2022-10-23T18:11:51.848Z,77.05
2022-10-23T18:14:20.324Z,77.23
2022-10-23T18:16:47.773Z,77.21
2022-10-23T18:19:19.522Z,77.57
2022-10-23T18:21:47.794Z,77.41
2022-10-23T18:24:15.455Z,77.36
2022-10-23T18:26:42.888Z,77.36
2022-10-23T18:29:14.723Z,77.32
2022-10-23T18:31:44.483Z,77.12
2022-10-23T18:34:21.685Z,77.16
2022-10-23T18:36:50.167Z,76.61
2022-10-23T18:39:19.445Z,76.71
2022-10-23T18:41:46.469Z,76.78
2022-10-23T18:44:17.624Z,76.87
2022-10-23T18:46:46.045Z,76.74
2022-10-23T18:49:13.097Z,75.82
2022-10-23T18:51:40.454Z,75.96
2022-10-23T18:54:12.244Z,75.27
2022-10-23T18:56:41.161Z,75.90
2022-10-23T18:59:12.245Z,75.25
2022-10-23T19:01:42.373Z,74.77
2022-10-23T19:04:12.648Z,74.33
2022-10-23T19:06:39.936Z,75.35
2022-10-23T19:09:08.365Z,74.74
2022-10-23T19:11:35.341Z,74.82
2022-10-23T19:14:03.118Z,74.54
2022-10-23T19:16:49.728Z,74.83
2022-10-23T19:19:30.666Z,74.87
2022-10-23T19:21:57.721Z,74.88
2022-10-23T19:24:38.516Z,74.55
2022-10-23T19:27:09.341Z,74.92
2022-10-23T19:29:45.203Z,74.39
2022-10-23T19:32:15.113Z,74.99
2022-10-23T19:34:44.562Z,75.60
2022-10-23T19:37:11.558Z,75.66
2022-10-23T19:39:41.430Z,75.86
2022-10-23T19:42:11.542Z,75.55
2022-10-23T19:44:39.003Z,75.04
2022-10-23T19:47:09.186Z,75.24
2022-10-23T19:49:44.440Z,75.53
2022-10-23T19:52:18.077Z,76.13
2022-10-23T19:54:45.865Z,76.28
2022-10-23T19:57:17.046Z,76.57
2022-10-23T19:59:53.465Z,76.06
2022-10-23T20:02:21.397Z,75.84
2022-10-23T20:04:48.856Z,76.29
2022-10-23T20:07:17.608Z,76.23
2022-10-23T20:09:44.844Z,76.20
2022-10-23T20:12:14.600Z,76.24
2022-10-23T20:14:44.269Z,76.17
2022-10-23T20:17:13.342Z,77.07
2022-10-23T20:19:40.795Z,76.33
2022-10-23T20:22:14.761Z,76.18
2022-10-23T20:24:45.351Z,75.89
2022-10-23T20:27:15.843Z,76.18
2022-10-23T20:29:48.371Z,74.90
2022-10-23T20:32:17.271Z,76.16
2022-10-23T20:34:46.142Z,76.72
2022-10-23T20:37:22.048Z,76.70
2022-10-23T20:40:02.347Z,76.62
2022-10-23T20:42:29.924Z,76.66
2022-10-23T20:45:03.718Z,76.30
2022-10-23T20:47:33.019Z,76.68
2022-10-23T20:50:00.347Z,76.81
2022-10-23T20:52:30.350Z,76.95
2022-10-23T20:55:01.948Z,77.00
2022-10-23T20:57:34.805Z,76.86
2022-10-23T21:00:15.442Z,76.88
2022-10-23T21:02:52.134Z,77.31
2022-10-23T21:05:28.024Z,77.79
2022-10-23T21:07:58.989Z,77.79
2022-10-23T21:10:39.709Z,77.43
2022-10-23T21:13:06.578Z,77.87
2022-10-23T21:15:34.778Z,77.64
2022-10-23T21:18:13.191Z,77.82
2022-10-23T21:21:01.230Z,77.71
2022-10-23T21:23:29.724Z,77.17
2022-10-23T21:26:06.344Z,76.63
2022-10-23T21:28:44.272Z,77.14
2022-10-23T21:31:20.885Z,77.11
2022-10-23T21:33:51.292Z,77.27
2022-10-23T21:36:20.584Z,76.96
2022-10-23T21:39:00.268Z,77.24
2022-10-23T21:41:34.611Z,77.57
2022-10-23T21:44:07.194Z,77.55
2022-10-23T21:46:37.355Z,78.34
2022-10-23T21:49:14.172Z,78.42
2022-10-23T21:51:47.532Z,78.74
2022-10-23T21:54:16.504Z,78.55
2022-10-23T21:56:54.176Z,77.71
2022-10-23T21:59:30.325Z,77.39
2022-10-23T22:02:07.124Z,77.41
2022-10-23T22:04:35.134Z,77.41
2022-10-23T22:07:10.967Z,77.47
2022-10-23T22:09:37.711Z,76.66
2022-10-23T22:12:04.532Z,75.95
2022-10-23T22:14:31.298Z,76.86
2022-10-23T22:16:58.671Z,76.69
2022-10-23T22:19:26.416Z,76.69
2022-10-23T22:21:53.232Z,76.39
2022-10-23T22:24:23.475Z,77.18
2022-10-23T22:26:53.835Z,77.16
2022-10-23T22:29:31.537Z,76.87
2022-10-23T22:32:03.289Z,76.41
2022-10-23T22:34:53.674Z,75.86
2022-10-23T22:37:25.508Z,76.22
2022-10-23T22:39:52.862Z,75.88
2022-10-23T22:42:22.577Z,76.16
2022-10-23T22:44:49.436Z,75.01
2022-10-23T22:47:16.267Z,74.49
2022-10-23T22:49:47.622Z,73.53
2022-10-23T22:52:17.306Z,74.03
2022-10-23T22:54:50.661Z,75.44
2022-10-23T22:57:17.697Z,76.18
2022-10-23T22:59:44.513Z,76.31
2022-10-23T23:02:11.276Z,76.85
2022-10-23T23:04:39.238Z,76.73
2022-10-23T23:07:08.478Z,75.93
2022-10-23T23:09:43.823Z,76.44
2022-10-23T23:12:18.179Z,76.09
2022-10-23T23:14:45.073Z,76.06
2022-10-23T23:17:13.267Z,74.80
2022-10-23T23:19:40.214Z,75.47
2022-10-23T23:22:09.727Z,75.98
2022-10-23T23:24:36.698Z,75.62
2022-10-23T23:27:06.579Z,75.26
2022-10-23T23:29:36.155Z,75.95
2022-10-23T23:32:09.799Z,76.20
2022-10-23T23:34:36.658Z,76.97
2022-10-23T23:37:03.428Z,76.89
2022-10-23T23:39:30.187Z,76.50
2022-10-23T23:42:02.707Z,77.36
2022-10-23T23:44:31.075Z,78.12
2022-10-23T23:47:06.406Z,77.75
2022-10-23T23:49:33.316Z,77.78
2022-10-23T23:52:03.889Z,77.35
2022-10-23T23:54:30.710Z,77.22
2022-10-23T23:57:00.004Z,77.58
2022-10-23T23:59:26.843Z,76.60
